Time;durP1;ratioP1;P1;durP2;ratioP2;P2;SDS_P1;SDS_P2;PMS_P1;PMS_P2;Temp;Humidity;BMP_temperature;BMP_pressure;BME280_temperature;BME280_humidity;BME280_pressure;Samples;Min_cycle;Max_cycle;Signal;HPM_P1;HPM_P2
2023/06/23 00:00:28;;;;;;;4.38;3.90;;;;;;;;;;5036008;28;20125;-24
2023/06/23 00:02:54;;;;;;;4.40;3.47;;;;;;;;;;5036052;28;20025;-24
2023/06/23 00:05:21;;;;;;;4.10;3.70;;;;;;;;;;5036222;28;20030;-24
2023/06/23 00:07:47;;;;;;;5.78;3.85;;;;;;;;;;5035999;28;20126;-24
2023/06/23 00:10:14;;;;;;;6.00;4.40;;;;;;;;;;5035777;28;20033;-24
2023/06/23 00:12:43;;;;;;;6.05;4.35;;;;;;;;;;5035537;28;20026;-24
2023/06/23 00:15:13;;;;;;;5.45;3.50;;;;;;;;;;5035818;28;20025;-24
2023/06/23 00:17:41;;;;;;;4.40;3.40;;;;;;;;;;5035449;28;20021;-24
2023/06/23 00:20:13;;;;;;;6.45;3.63;;;;;;;;;;5035216;28;20029;-24
2023/06/23 00:22:40;;;;;;;3.95;3.65;;;;;;;;;;5035388;28;20037;-24
2023/06/23 00:25:09;;;;;;;7.57;3.92;;;;;;;;;;5035343;28;20101;-24
2023/06/23 00:27:35;;;;;;;4.50;4.10;;;;;;;;;;5035258;28;20064;-24
2023/06/23 00:30:02;;;;;;;4.70;3.78;;;;;;;;;;5035081;28;20456;-24
2023/06/23 00:32:28;;;;;;;4.07;3.78;;;;;;;;;;5035134;28;20025;-24
2023/06/23 00:34:54;;;;;;;6.03;4.05;;;;;;;;;;5017813;28;20456;-24
2023/06/23 00:37:21;;;;;;;4.55;3.40;;;;;;;;;;5035127;28;20036;-24
2023/06/23 00:39:47;;;;;;;4.00;3.60;;;;;;;;;;5035057;28;20068;-24
2023/06/23 00:42:13;;;;;;;3.85;3.55;;;;;;;;;;5035096;28;20021;-24
2023/06/23 00:44:39;;;;;;;4.03;3.10;;;;;;;;;;5034910;28;20033;-24
2023/06/23 00:47:08;;;;;;;9.15;3.85;;;;;;;;;;5035276;28;20171;-24
2023/06/23 00:49:35;;;;;;;6.28;3.25;;;;;;;;;;5034585;28;20036;-24
2023/06/23 00:52:07;;;;;;;5.63;4.07;;;;;;;;;;5034918;28;20030;-24
2023/06/23 00:54:35;;;;;;;4.57;3.65;;;;;;;;;;5034868;28;20457;-24
2023/06/23 00:57:02;;;;;;;4.07;3.22;;;;;;;;;;5034837;28;20025;-24
2023/06/23 00:59:28;;;;;;;5.68;3.88;;;;;;;;;;5034985;28;20029;-24
2023/06/23 01:02:01;;;;;;;3.13;2.92;;;;;;;;;;5035382;28;20025;-24
2023/06/23 01:04:28;;;;;;;3.85;3.58;;;;;;;;;;5034974;28;20044;-24
2023/06/23 01:07:00;;;;;;;3.92;3.53;;;;;;;;;;5034920;28;20396;-24
2023/06/23 01:09:31;;;;;;;3.72;3.47;;;;;;;;;;5034584;28;20026;-24
2023/06/23 01:11:57;;;;;;;5.03;3.55;;;;;;;;;;5035004;28;20052;-24
2023/06/23 01:14:28;;;;;;;7.03;3.75;;;;;;;;;;5034901;28;20401;-24
2023/06/23 01:17:05;;;;;;;4.50;3.47;;;;;;;;;;5034963;28;20014;-24
2023/06/23 01:19:52;;;;;;;4.40;3.88;;;;;;;;;;5017131;28;20033;-24
2023/06/23 01:22:21;;;;;;;5.13;3.80;;;;;;;;;;5034481;28;20457;-24
2023/06/23 01:24:56;;;;;;;3.55;3.25;;;;;;;;;;5034798;28;20029;-24
2023/06/23 01:27:28;;;;;;;3.85;3.20;;;;;;;;;;5034740;28;20029;-24
2023/06/23 01:29:55;;;;;;;3.47;3.20;;;;;;;;;;5034608;28;20026;-25
2023/06/23 01:32:27;;;;;;;4.35;3.97;;;;;;;;;;5036305;28;20025;-25
2023/06/23 01:34:55;;;;;;;4.03;3.63;;;;;;;;;;5039088;28;20112;-24
2023/06/23 01:37:23;;;;;;;3.92;3.70;;;;;;;;;;5038493;28;20045;-25
2023/06/23 01:39:54;;;;;;;6.32;4.10;;;;;;;;;;5038380;28;20400;-25
2023/06/23 01:42:20;;;;;;;;;;;;;;;;;;5038793;28;20052;-25
2023/06/23 01:44:48;;;;;;;3.40;3.20;;;;;;;;;;5038628;28;19905;-25
2023/06/23 01:47:19;;;;;;;5.13;3.55;;;;;;;;;;5038567;28;20400;-25
2023/06/23 01:49:45;;;;;;;;;;;;;;;;;;5038635;28;20091;-25
2023/06/23 01:52:12;;;;;;;4.68;3.80;;;;;;;;;;5038510;28;19916;-24
2023/06/23 01:54:40;;;;;;;4.47;3.13;;;;;;;;;;5038402;28;20040;-25
2023/06/23 01:57:07;;;;;;;4.70;4.38;;;;;;;;;;5038125;28;20108;-25
2023/06/23 01:59:34;;;;;;;3.45;3.25;;;;;;;;;;5038068;28;20026;-25
2023/06/23 02:02:01;;;;;;;4.53;3.78;;;;;;;;;;5020599;28;20033;-25
2023/06/23 02:04:28;;;;;;;3.00;2.80;;;;;;;;;;5038002;28;20030;-25
2023/06/23 02:06:55;;;;;;;3.53;3.22;;;;;;;;;;5038236;28;20108;-25
2023/06/23 02:09:25;;;;;;;3.72;3.20;;;;;;;;;;5038199;28;20107;-25
2023/06/23 02:11:51;;;;;;;3.25;3.05;;;;;;;;;;5038146;28;20021;-25
2023/06/23 02:14:19;;;;;;;4.72;4.32;;;;;;;;;;5038139;28;20403;-25
2023/06/23 02:16:47;;;;;;;3.70;3.00;;;;;;;;;;5037724;28;20046;-25
2023/06/23 02:19:14;;;;;;;3.72;3.42;;;;;;;;;;5037725;28;20065;-25
2023/06/23 02:21:41;;;;;;;3.63;3.05;;;;;;;;;;5037975;28;20048;-25
2023/06/23 02:24:07;;;;;;;3.88;3.58;;;;;;;;;;5037948;28;20356;-25
2023/06/23 02:26:35;;;;;;;3.72;3.40;;;;;;;;;;5037576;28;20360;-25
2023/06/23 02:29:01;;;;;;;3.63;3.28;;;;;;;;;;5037705;28;20061;-25
2023/06/23 02:31:28;;;;;;;4.78;3.38;;;;;;;;;;5037820;28;20076;-25
2023/06/23 02:33:54;;;;;;;3.45;3.25;;;;;;;;;;5037512;28;20022;-26
2023/06/23 02:36:22;;;;;;;3.58;3.38;;;;;;;;;;5019988;28;20403;-25
2023/06/23 02:38:54;;;;;;;3.38;3.10;;;;;;;;;;5019943;28;20025;-25
2023/06/23 02:41:20;;;;;;;3.55;3.30;;;;;;;;;;5037326;28;20017;-25
2023/06/23 02:43:56;;;;;;;4.47;3.00;;;;;;;;;;5036466;28;20037;-24
2023/06/23 02:46:24;;;;;;;4.85;3.50;;;;;;;;;;5038034;28;20021;-25
2023/06/23 02:48:51;;;;;;;3.22;2.92;;;;;;;;;;5037306;28;20357;-25
2023/06/23 02:51:21;;;;;;;3.42;3.13;;;;;;;;;;5037006;28;20053;-25
2023/06/23 02:54:07;;;;;;;4.72;3.60;;;;;;;;;;5037154;28;20076;-25
2023/06/23 02:56:35;;;;;;;5.15;4.10;;;;;;;;;;5037366;28;20076;-25
2023/06/23 02:59:05;;;;;;;3.58;3.38;;;;;;;;;;5037228;28;20356;-25
2023/06/23 03:01:33;;;;;;;3.88;3.58;;;;;;;;;;5036944;28;20048;-24
2023/06/23 03:04:00;;;;;;;4.00;3.58;;;;;;;;;;5037159;28;20370;-25
2023/06/23 03:06:26;;;;;;;6.72;3.95;;;;;;;;;;5036915;28;20037;-25
2023/06/23 03:08:53;;;;;;;4.53;3.58;;;;;;;;;;5036953;28;20105;-25
2023/06/23 03:11:20;;;;;;;3.97;3.30;;;;;;;;;;5036741;28;20101;-25
2023/06/23 03:13:47;;;;;;;3.55;3.25;;;;;;;;;;5036701;28;20026;-25
2023/06/23 03:16:16;;;;;;;3.33;3.00;;;;;;;;;;5037253;28;20017;-25
2023/06/23 03:18:45;;;;;;;3.58;3.20;;;;;;;;;;5036610;28;20025;-25
2023/06/23 03:21:11;;;;;;;3.47;3.17;;;;;;;;;;5036765;28;20053;-25
2023/06/23 03:23:38;;;;;;;3.88;3.65;;;;;;;;;;5036846;28;20060;-25
2023/06/23 03:26:06;;;;;;;3.58;3.33;;;;;;;;;;5036786;28;20025;-25
2023/06/23 03:28:35;;;;;;;4.65;3.88;;;;;;;;;;5036636;28;20352;-25
2023/06/23 03:31:03;;;;;;;3.30;3.00;;;;;;;;;;5037150;28;20021;-25
2023/06/23 03:33:35;;;;;;;3.78;3.47;;;;;;;;;;5036340;28;20595;-25
2023/06/23 03:36:21;;;;;;;3.95;3.67;;;;;;;;;;5036652;28;20049;-25
2023/06/23 03:38:56;;;;;;;3.60;3.30;;;;;;;;;;5036095;28;20021;-25
2023/06/23 03:41:22;;;;;;;3.22;2.92;;;;;;;;;;5036750;28;20017;-25
2023/06/23 03:43:59;;;;;;;4.45;4.05;;;;;;;;;;5036132;28;20033;-25
2023/06/23 03:46:29;;;;;;;2.88;2.67;;;;;;;;;;5036347;28;20021;-25
2023/06/23 03:48:57;;;;;;;3.78;3.47;;;;;;;;;;5035882;28;20163;-25
2023/06/23 03:51:24;;;;;;;3.40;3.20;;;;;;;;;;5035868;28;20072;-25
2023/06/23 03:53:52;;;;;;;3.38;3.08;;;;;;;;;;5035971;28;20025;-25
2023/06/23 03:56:19;;;;;;;3.25;3.05;;;;;;;;;;5035799;28;20025;-25
2023/06/23 03:58:46;;;;;;;4.05;3.20;;;;;;;;;;5036100;28;20057;-25
2023/06/23 04:01:14;;;;;;;3.50;3.20;;;;;;;;;;5035685;28;20040;-25
2023/06/23 04:03:41;;;;;;;3.88;3.55;;;;;;;;;;5035783;28;20021;-25
2023/06/23 04:06:08;;;;;;;3.28;3.08;;;;;;;;;;5035962;28;20407;-25
2023/06/23 04:08:35;;;;;;;2.58;2.47;;;;;;;;;;5035566;28;20021;-25
2023/06/23 04:11:02;;;;;;;3.40;3.20;;;;;;;;;;5034679;28;20033;-25
2023/06/23 04:13:29;;;;;;;3.78;3.45;;;;;;;;;;5035377;28;20029;-25
2023/06/23 04:15:57;;;;;;;3.67;3.38;;;;;;;;;;5035828;28;20340;-25
2023/06/23 04:18:25;;;;;;;4.97;3.08;;;;;;;;;;5035206;28;20025;-25
2023/06/23 04:20:53;;;;;;;4.35;3.45;;;;;;;;;;5035171;28;20087;-25
2023/06/23 04:23:19;;;;;;;3.80;3.50;;;;;;;;;;5018116;28;20033;-25
2023/06/23 04:25:48;;;;;;;3.60;3.30;;;;;;;;;;5035385;28;20056;-25
2023/06/23 04:28:15;;;;;;;3.90;3.45;;;;;;;;;;5035044;28;20105;-25
2023/06/23 04:30:42;;;;;;;4.65;3.03;;;;;;;;;;5035253;28;20030;-25
2023/06/23 04:33:09;;;;;;;4.30;4.00;;;;;;;;;;5035372;28;20352;-25
2023/06/23 04:35:35;;;;;;;3.63;3.40;;;;;;;;;;5035400;28;20029;-24
2023/06/23 04:38:05;;;;;;;4.93;3.35;;;;;;;;;;5035081;28;20036;-25
2023/06/23 04:40:43;;;;;;;3.85;3.40;;;;;;;;;;5034869;28;20022;-25
2023/06/23 04:43:13;;;;;;;5.82;4.25;;;;;;;;;;5035150;28;20044;-25
2023/06/23 04:45:47;;;;;;;5.28;3.72;;;;;;;;;;5035086;28;20437;-25
2023/06/23 04:48:14;;;;;;;4.63;3.33;;;;;;;;;;5035056;28;20040;-25
2023/06/23 04:50:41;;;;;;;12.85;3.60;;;;;;;;;;5034327;28;20041;-25
2023/06/23 04:53:13;;;;;;;5.97;3.30;;;;;;;;;;5034749;28;20349;-25
2023/06/23 04:55:40;;;;;;;4.70;3.63;;;;;;;;;;5034993;28;20063;-25
2023/06/23 04:58:09;;;;;;;8.85;3.58;;;;;;;;;;5034718;28;20087;-24
2023/06/23 05:00:36;;;;;;;5.03;3.67;;;;;;;;;;5034530;28;20452;-25
2023/06/23 05:03:03;;;;;;;4.63;4.13;;;;;;;;;;5034733;28;20105;-25
2023/06/23 05:05:30;;;;;;;7.35;3.65;;;;;;;;;;5034514;28;20030;-25
2023/06/23 05:07:57;;;;;;;6.88;4.35;;;;;;;;;;5034259;28;20025;-25
2023/06/23 05:10:24;;;;;;;3.60;3.13;;;;;;;;;;5034335;28;20099;-25
2023/06/23 05:12:52;;;;;;;4.13;3.72;;;;;;;;;;5017528;28;20021;-25
2023/06/23 05:15:18;;;;;;;2.90;2.60;;;;;;;;;;5034614;28;20122;-27
2023/06/23 05:17:45;;;;;;;3.72;3.10;;;;;;;;;;5034682;28;20025;-25
2023/06/23 05:20:12;;;;;;;3.72;3.33;;;;;;;;;;5034179;28;20026;-24
2023/06/23 05:22:39;;;;;;;5.05;3.03;;;;;;;;;;5034196;28;20469;-25
2023/06/23 05:25:06;;;;;;;5.00;3.33;;;;;;;;;;5016625;28;20026;-24
2023/06/23 05:27:33;;;;;;;3.60;3.30;;;;;;;;;;5034397;28;20025;-25
2023/06/23 05:30:00;;;;;;;7.07;3.75;;;;;;;;;;5033950;28;20029;-25
2023/06/23 05:32:28;;;;;;;5.00;3.67;;;;;;;;;;5034110;28;20324;-25
2023/06/23 05:34:56;;;;;;;8.10;3.60;;;;;;;;;;5034032;28;20471;-25
2023/06/23 05:37:23;;;;;;;9.30;3.88;;;;;;;;;;5034000;28;20448;-25
2023/06/23 05:39:50;;;;;;;4.90;3.88;;;;;;;;;;5033965;28;20032;-25
2023/06/23 05:42:16;;;;;;;4.45;3.45;;;;;;;;;;5017280;28;20033;-25
2023/06/23 05:44:42;;;;;;;4.88;3.00;;;;;;;;;;5034314;28;20021;-25
2023/06/23 05:47:11;;;;;;;5.90;3.50;;;;;;;;;;5033995;28;20030;-25
2023/06/23 05:49:42;;;;;;;13.27;3.40;;;;;;;;;;5033985;28;20029;-25
2023/06/23 05:52:08;;;;;;;;;;;;;;;;;;5034736;28;20029;-24
2023/06/23 05:54:38;;;;;;;5.90;3.13;;;;;;;;;;5016662;28;20256;-25
2023/06/23 05:57:07;;;;;;;11.40;3.40;;;;;;;;;;5016614;28;20036;-25
2023/06/23 05:59:45;;;;;;;4.78;4.15;;;;;;;;;;5034221;28;20048;-25
2023/06/23 06:02:16;;;;;;;5.95;3.83;;;;;;;;;;5034157;28;20352;-25
2023/06/23 06:04:44;;;;;;;6.65;3.35;;;;;;;;;;5033925;28;20025;-24
2023/06/23 06:07:11;;;;;;;10.02;3.42;;;;;;;;;;5016441;28;20021;-25
2023/06/23 06:09:38;;;;;;;6.28;3.10;;;;;;;;;;5033757;28;20407;-24
2023/06/23 06:12:04;;;;;;;4.63;3.15;;;;;;;;;;5033741;28;20026;-25
2023/06/23 06:14:31;;;;;;;5.55;3.70;;;;;;;;;;5033970;28;20037;-25
2023/06/23 06:16:58;;;;;;;5.15;3.30;;;;;;;;;;5033914;28;20033;-25
2023/06/23 06:19:25;;;;;;;6.18;3.70;;;;;;;;;;5036974;28;20394;-25
2023/06/23 06:21:53;;;;;;;5.60;3.30;;;;;;;;;;5037343;28;20041;-25
2023/06/23 06:24:19;;;;;;;5.93;3.63;;;;;;;;;;5037844;28;20034;-25
2023/06/23 06:26:48;;;;;;;7.38;3.63;;;;;;;;;;5037253;28;20060;-25
2023/06/23 06:29:15;;;;;;;7.78;3.67;;;;;;;;;;5037303;28;20030;-25
2023/06/23 06:31:44;;;;;;;6.30;3.90;;;;;;;;;;5037364;28;20022;-25
2023/06/23 06:34:12;;;;;;;12.00;4.95;;;;;;;;;;5037337;28;20018;-25
2023/06/23 06:36:39;;;;;;;5.68;3.92;;;;;;;;;;5019788;28;20117;-25
2023/06/23 06:39:05;;;;;;;7.80;3.55;;;;;;;;;;5036978;28;20100;-25
2023/06/23 06:41:32;;;;;;;9.90;3.72;;;;;;;;;;5036910;28;20040;-30
2023/06/23 06:43:58;;;;;;;7.15;3.83;;;;;;;;;;5037159;28;20526;-25
2023/06/23 06:46:25;;;;;;;6.45;3.67;;;;;;;;;;5037073;28;20044;-25
2023/06/23 06:48:52;;;;;;;22.33;5.40;;;;;;;;;;5036571;28;20056;-25
2023/06/23 06:51:19;;;;;;;11.40;4.20;;;;;;;;;;5018900;28;20076;-25
2023/06/23 06:53:45;;;;;;;6.50;3.65;;;;;;;;;;5036617;28;20503;-25
2023/06/23 06:56:12;;;;;;;23.35;5.40;;;;;;;;;;5036580;28;20026;-25
2023/06/23 06:58:38;;;;;;;9.50;3.83;;;;;;;;;;5036523;28;20021;-25
2023/06/23 07:01:04;;;;;;;12.23;4.30;;;;;;;;;;5036523;28;20040;-24
2023/06/23 07:03:31;;;;;;;8.27;4.05;;;;;;;;;;5036608;28;20313;-25
2023/06/23 07:05:57;;;;;;;5.13;3.42;;;;;;;;;;5037067;28;20026;-25
2023/06/23 07:08:24;;;;;;;15.23;4.75;;;;;;;;;;5036531;28;20029;-25
2023/06/23 07:10:50;;;;;;;12.95;4.10;;;;;;;;;;5036856;28;20029;-25
2023/06/23 07:13:16;;;;;;;9.60;3.80;;;;;;;;;;5036353;28;20018;-25
2023/06/23 07:15:42;;;;;;;14.18;3.70;;;;;;;;;;5036466;28;20033;-25
2023/06/23 07:18:08;;;;;;;17.17;4.03;;;;;;;;;;5036255;28;20030;-24
2023/06/23 07:20:34;;;;;;;9.05;3.65;;;;;;;;;;5036134;28;20404;-24
2023/06/23 07:23:00;;;;;;;11.52;3.90;;;;;;;;;;5036148;28;20100;-24
2023/06/23 07:25:26;;;;;;;18.48;4.60;;;;;;;;;;5036462;28;20025;-24
2023/06/23 07:27:53;;;;;;;8.57;3.67;;;;;;;;;;5036047;28;20033;-24
2023/06/23 07:30:19;;;;;;;7.75;3.58;;;;;;;;;;5035084;28;20045;-24
2023/06/23 07:32:48;;;;;;;13.75;3.85;;;;;;;;;;5036441;28;20032;-25
2023/06/23 07:35:14;;;;;;;11.77;4.32;;;;;;;;;;5035826;28;20017;-24
2023/06/23 07:37:40;;;;;;;14.65;3.95;;;;;;;;;;5035904;28;20046;-24
2023/06/23 07:40:06;;;;;;;10.80;4.60;;;;;;;;;;5035998;28;20032;-24
2023/06/23 07:42:33;;;;;;;11.52;3.53;;;;;;;;;;5036258;28;20345;-25
2023/06/23 07:44:59;;;;;;;11.32;3.45;;;;;;;;;;5035747;28;20320;-24
2023/06/23 07:47:25;;;;;;;11.63;3.30;;;;;;;;;;5036016;28;20032;-25
2023/06/23 07:49:51;;;;;;;5.88;3.45;;;;;;;;;;5035444;28;20116;-24
2023/06/23 07:52:17;;;;;;;35.70;5.40;;;;;;;;;;5018108;28;20082;-24
2023/06/23 07:54:43;;;;;;;20.92;4.65;;;;;;;;;;5035658;28;20395;-24
2023/06/23 07:57:11;;;;;;;9.35;3.45;;;;;;;;;;5018068;28;20021;-24
2023/06/23 07:59:38;;;;;;;15.48;4.80;;;;;;;;;;5035608;28;20403;-24
2023/06/23 08:02:04;;;;;;;10.77;4.35;;;;;;;;;;5035828;28;20100;-24
2023/06/23 08:04:30;;;;;;;4.03;3.15;;;;;;;;;;5035779;28;20038;-24
2023/06/23 08:06:56;;;;;;;5.65;3.67;;;;;;;;;;5035459;28;20124;-24
2023/06/23 08:09:22;;;;;;;4.65;3.40;;;;;;;;;;5035257;28;20030;-24
2023/06/23 08:11:49;;;;;;;3.90;3.50;;;;;;;;;;5035291;28;20116;-24
2023/06/23 08:14:15;;;;;;;7.78;3.78;;;;;;;;;;5035402;28;20029;-24
2023/06/23 08:16:41;;;;;;;7.05;3.40;;;;;;;;;;5035552;28;20029;-24
2023/06/23 08:19:07;;;;;;;5.97;3.65;;;;;;;;;;5035352;28;20449;-25
2023/06/23 08:21:36;;;;;;;5.03;3.83;;;;;;;;;;5035033;28;20029;-24
2023/06/23 08:24:03;;;;;;;5.60;3.80;;;;;;;;;;5034972;28;20069;-24
2023/06/23 08:26:29;;;;;;;8.05;3.80;;;;;;;;;;5035427;28;20108;-24
2023/06/23 08:28:55;;;;;;;6.68;4.05;;;;;;;;;;5035422;28;20025;-24
2023/06/23 08:31:22;;;;;;;11.57;4.00;;;;;;;;;;5035167;28;20033;-24
2023/06/23 08:33:48;;;;;;;9.45;4.10;;;;;;;;;;5017519;28;20112;-24
2023/06/23 08:36:14;;;;;;;9.88;3.63;;;;;;;;;;5035164;28;20091;-24
2023/06/23 08:38:40;;;;;;;4.70;3.72;;;;;;;;;;5034720;28;20025;-24
2023/06/23 08:41:07;;;;;;;20.23;5.88;;;;;;;;;;5034552;28;20029;-24
2023/06/23 08:43:35;;;;;;;13.95;4.10;;;;;;;;;;5034997;28;20376;-24
2023/06/23 08:46:04;;;;;;;9.05;3.47;;;;;;;;;;5034718;28;20049;-24
2023/06/23 08:48:31;;;;;;;6.28;3.40;;;;;;;;;;5035167;28;20030;-24
2023/06/23 08:50:59;;;;;;;5.90;3.55;;;;;;;;;;5034242;28;20122;-24
2023/06/23 08:53:26;;;;;;;4.20;3.80;;;;;;;;;;5034563;28;20040;-24
2023/06/23 08:55:53;;;;;;;4.88;3.38;;;;;;;;;;5034549;28;20471;-24
2023/06/23 08:58:21;;;;;;;9.88;3.50;;;;;;;;;;5034472;28;20034;-24
2023/06/23 09:00:47;;;;;;;6.07;3.70;;;;;;;;;;5017008;28;20029;-24
2023/06/23 09:03:14;;;;;;;4.97;3.40;;;;;;;;;;5016976;28;20388;-25
2023/06/23 09:05:41;;;;;;;6.43;3.83;;;;;;;;;;5034271;28;20412;-24
2023/06/23 09:08:07;;;;;;;7.25;4.60;;;;;;;;;;5034359;28;20341;-24
2023/06/23 09:10:34;;;;;;;8.38;3.58;;;;;;;;;;5034206;28;20096;-24
2023/06/23 09:13:06;;;;;;;4.82;3.75;;;;;;;;;;5034765;28;20030;-24
2023/06/23 09:15:33;;;;;;;5.18;4.18;;;;;;;;;;5016843;28;20033;-24
2023/06/23 09:18:00;;;;;;;4.30;3.90;;;;;;;;;;5034213;28;20071;-24
2023/06/23 09:20:26;;;;;;;8.43;4.97;;;;;;;;;;5034156;28;20103;-24
2023/06/23 09:22:54;;;;;;;9.50;4.28;;;;;;;;;;5034012;28;20112;-24
2023/06/23 09:25:39;;;;;;;12.25;4.85;;;;;;;;;;5034156;28;20326;-24
2023/06/23 09:28:05;;;;;;;11.93;4.10;;;;;;;;;;5016811;28;20021;-25
2023/06/23 09:30:36;;;;;;;11.63;4.13;;;;;;;;;;5034033;28;20510;-25
2023/06/23 09:33:05;;;;;;;4.00;3.35;;;;;;;;;;5034241;28;20041;-24
2023/06/23 09:35:31;;;;;;;9.45;4.03;;;;;;;;;;5034314;28;20029;-24
2023/06/23 09:37:58;;;;;;;4.95;4.15;;;;;;;;;;5034430;28;20091;-25
2023/06/23 09:40:27;;;;;;;3.90;3.35;;;;;;;;;;5034296;28;20038;-24
2023/06/23 09:42:59;;;;;;;7.22;4.03;;;;;;;;;;5034436;28;20045;-24
2023/06/23 09:45:25;;;;;;;8.82;5.05;;;;;;;;;;5034122;28;20076;-24
2023/06/23 09:47:52;;;;;;;9.55;4.65;;;;;;;;;;5034042;28;20029;-24
2023/06/23 09:50:20;;;;;;;15.48;4.65;;;;;;;;;;5016454;28;20051;-24
2023/06/23 09:52:46;;;;;;;15.05;3.90;;;;;;;;;;5034812;28;20091;-24
2023/06/23 09:55:13;;;;;;;6.57;4.80;;;;;;;;;;5020840;28;20026;-24
2023/06/23 09:57:39;;;;;;;9.18;5.93;;;;;;;;;;5038377;28;20112;-24
2023/06/23 10:00:08;;;;;;;9.05;4.88;;;;;;;;;;5037855;28;20090;-24
2023/06/23 10:02:41;;;;;;;7.97;4.88;;;;;;;;;;5038417;28;20416;-25
2023/06/23 10:05:07;;;;;;;7.63;5.03;;;;;;;;;;5038181;28;20033;-24
2023/06/23 10:07:34;;;;;;;11.95;5.45;;;;;;;;;;5037767;28;20021;-24
2023/06/23 10:10:04;;;;;;;6.00;4.93;;;;;;;;;;5037951;28;20423;-24
2023/06/23 10:12:30;;;;;;;12.43;4.65;;;;;;;;;;5038058;28;20064;-24
2023/06/23 10:14:57;;;;;;;8.95;4.90;;;;;;;;;;5037756;28;20037;-24
2023/06/23 10:17:23;;;;;;;6.55;4.50;;;;;;;;;;5038073;28;20060;-24
2023/06/23 10:19:50;;;;;;;10.15;4.68;;;;;;;;;;5037535;28;20030;-25
2023/06/23 10:22:20;;;;;;;10.48;5.15;;;;;;;;;;5037535;28;20341;-24
2023/06/23 10:24:48;;;;;;;5.87;4.87;;;;;;;;;;5037455;28;20025;-24
2023/06/23 10:27:16;;;;;;;12.00;4.18;;;;;;;;;;5037160;28;20256;-24
2023/06/23 10:29:45;;;;;;;11.98;4.80;;;;;;;;;;5037003;28;20108;-25
2023/06/23 10:32:12;;;;;;;10.70;4.05;;;;;;;;;;5037744;28;20028;-24
2023/06/23 10:34:41;;;;;;;5.88;3.95;;;;;;;;;;5037228;28;20032;-24
2023/06/23 10:37:09;;;;;;;8.35;3.50;;;;;;;;;;5037146;28;20029;-24
2023/06/23 10:39:36;;;;;;;11.05;3.92;;;;;;;;;;5036987;28;20025;-26
2023/06/23 10:42:02;;;;;;;7.93;4.53;;;;;;;;;;5019448;28;20026;-26
2023/06/23 10:44:28;;;;;;;10.75;4.93;;;;;;;;;;5037498;28;20067;-24
2023/06/23 10:46:55;;;;;;;6.15;3.90;;;;;;;;;;5036815;28;20087;-25
2023/06/23 10:49:21;;;;;;;12.32;4.25;;;;;;;;;;5019782;28;20057;-25
2023/06/23 10:51:47;;;;;;;5.40;4.25;;;;;;;;;;5036690;28;20045;-25
2023/06/23 10:54:25;;;;;;;7.72;4.03;;;;;;;;;;5037036;28;20048;-25
2023/06/23 10:56:53;;;;;;;5.45;3.78;;;;;;;;;;5019295;28;20047;-25
2023/06/23 10:59:20;;;;;;;7.97;5.22;;;;;;;;;;5036880;28;20431;-25
2023/06/23 11:02:07;;;;;;;6.10;4.05;;;;;;;;;;5036615;28;20025;-25
2023/06/23 11:04:38;;;;;;;6.72;4.32;;;;;;;;;;5035744;28;20033;-25
2023/06/23 11:07:13;;;;;;;12.93;4.78;;;;;;;;;;5036631;28;20021;-25
2023/06/23 11:09:54;;;;;;;10.32;4.47;;;;;;;;;;5036737;28;20099;-25
2023/06/23 11:12:20;;;;;;;;;;;;;;;;;;5036851;28;20030;-25
2023/06/23 11:14:46;;;;;;;8.50;4.45;;;;;;;;;;5036686;28;19905;-25
2023/06/23 11:17:14;;;;;;;7.93;4.72;;;;;;;;;;5036495;28;20403;-25
2023/06/23 11:19:40;;;;;;;5.80;4.40;;;;;;;;;;5018519;28;20040;-25
2023/06/23 11:22:09;;;;;;;11.00;4.65;;;;;;;;;;5036295;28;20104;-25
2023/06/23 11:24:35;;;;;;;12.13;5.10;;;;;;;;;;5036520;28;20036;-25
2023/06/23 11:27:03;;;;;;;5.13;4.70;;;;;;;;;;5036259;28;20029;-25
2023/06/23 11:29:31;;;;;;;10.77;4.80;;;;;;;;;;5036171;28;20032;-25
2023/06/23 11:32:04;;;;;;;5.20;4.15;;;;;;;;;;5036103;28;20036;-25
2023/06/23 11:34:30;;;;;;;9.98;4.68;;;;;;;;;;5036335;28;20464;-25
2023/06/23 11:36:57;;;;;;;15.60;4.32;;;;;;;;;;5018630;28;20022;-25
2023/06/23 11:39:24;;;;;;;6.15;4.57;;;;;;;;;;5036062;28;20108;-25
2023/06/23 11:41:50;;;;;;;7.15;4.00;;;;;;;;;;5018550;28;20037;-25
2023/06/23 11:44:17;;;;;;;6.40;4.72;;;;;;;;;;5036221;28;20032;-25
2023/06/23 11:46:43;;;;;;;7.18;3.85;;;;;;;;;;5035914;28;20045;-25
2023/06/23 11:49:12;;;;;;;8.15;4.20;;;;;;;;;;5035694;28;20095;-25
2023/06/23 11:51:39;;;;;;;8.88;4.57;;;;;;;;;;5035614;28;20084;-25
2023/06/23 11:54:08;;;;;;;17.95;4.93;;;;;;;;;;5036123;28;20524;-25
2023/06/23 11:56:34;;;;;;;9.00;4.72;;;;;;;;;;5036339;28;20400;-25
2023/06/23 11:59:02;;;;;;;5.97;4.22;;;;;;;;;;5035863;28;20026;-25
2023/06/23 12:01:28;;;;;;;7.43;4.72;;;;;;;;;;5035669;28;20099;-25
2023/06/23 12:03:54;;;;;;;15.18;5.13;;;;;;;;;;5035408;28;20021;-25
2023/06/23 12:06:22;;;;;;;5.15;4.50;;;;;;;;;;5017809;28;20017;-25
2023/06/23 12:08:49;;;;;;;12.00;5.05;;;;;;;;;;5035235;28;20033;-25
2023/06/23 12:11:20;;;;;;;15.35;4.60;;;;;;;;;;5035378;28;20035;-25
2023/06/23 12:13:47;;;;;;;12.85;5.97;;;;;;;;;;5035674;28;20527;-25
2023/06/23 12:16:13;;;;;;;7.70;5.22;;;;;;;;;;5034958;28;20033;-25
2023/06/23 12:18:46;;;;;;;10.27;4.63;;;;;;;;;;5035305;28;20025;-25
2023/06/23 12:21:12;;;;;;;10.38;4.75;;;;;;;;;;5035186;28;20040;-25
2023/06/23 12:23:38;;;;;;;5.00;4.20;;;;;;;;;;5035453;28;20044;-25
2023/06/23 12:26:06;;;;;;;7.85;5.10;;;;;;;;;;5035248;28;20352;-25
2023/06/23 12:28:33;;;;;;;8.05;5.50;;;;;;;;;;5035184;28;20028;-25
2023/06/23 12:30:59;;;;;;;8.73;5.05;;;;;;;;;;5034982;28;20033;-25
2023/06/23 12:33:29;;;;;;;6.75;5.00;;;;;;;;;;5035468;28;20018;-25
2023/06/23 12:36:00;;;;;;;9.03;4.73;;;;;;;;;;5017789;28;20079;-25
2023/06/23 12:38:26;;;;;;;9.82;4.68;;;;;;;;;;5035207;28;20030;-25
2023/06/23 12:40:52;;;;;;;6.43;4.95;;;;;;;;;;5035172;28;20440;-25
2023/06/23 12:43:19;;;;;;;9.40;5.28;;;;;;;;;;5034882;28;20443;-25
2023/06/23 12:45:49;;;;;;;11.52;4.63;;;;;;;;;;5017403;28;20029;-25
2023/06/23 12:48:16;;;;;;;6.88;4.63;;;;;;;;;;5017393;28;20025;-25
2023/06/23 12:50:42;;;;;;;6.07;4.82;;;;;;;;;;5034425;28;20077;-25
2023/06/23 12:53:09;;;;;;;7.57;5.00;;;;;;;;;;5035020;28;20322;-25
2023/06/23 12:55:35;;;;;;;6.38;4.95;;;;;;;;;;5034773;28;20060;-25
2023/06/23 12:58:01;;;;;;;14.30;5.07;;;;;;;;;;5017365;28;20064;-25
2023/06/23 13:00:27;;;;;;;9.63;4.10;;;;;;;;;;5034693;28;20033;-25
2023/06/23 13:02:53;;;;;;;16.00;5.03;;;;;;;;;;5034668;28;20337;-25
2023/06/23 13:05:20;;;;;;;6.35;5.28;;;;;;;;;;5034913;28;20040;-25
2023/06/23 13:07:46;;;;;;;8.48;4.90;;;;;;;;;;5034655;28;20031;-25
2023/06/23 13:10:13;;;;;;;8.30;5.20;;;;;;;;;;5035068;28;20026;-25
2023/06/23 13:12:39;;;;;;;7.07;5.22;;;;;;;;;;5034894;28;20083;-25
2023/06/23 13:15:05;;;;;;;11.77;4.50;;;;;;;;;;5034813;28;20025;-25
2023/06/23 13:17:32;;;;;;;15.48;5.93;;;;;;;;;;5017100;28;20049;-25
2023/06/23 13:19:59;;;;;;;10.07;5.72;;;;;;;;;;5034328;28;20061;-25
2023/06/23 13:22:25;;;;;;;9.35;5.07;;;;;;;;;;5035108;28;20029;-25
2023/06/23 13:24:51;;;;;;;6.72;4.95;;;;;;;;;;5034774;28;20360;-25
2023/06/23 13:27:18;;;;;;;9.40;4.90;;;;;;;;;;5033726;28;20460;-25
2023/06/23 13:29:44;;;;;;;19.52;5.20;;;;;;;;;;5034249;28;20116;-25
2023/06/23 13:32:10;;;;;;;11.00;5.20;;;;;;;;;;5034559;28;20352;-25
2023/06/23 13:34:36;;;;;;;16.35;6.00;;;;;;;;;;5034306;28;20022;-25
2023/06/23 13:37:03;;;;;;;13.98;5.53;;;;;;;;;;5034343;28;20047;-25
2023/06/23 13:39:29;;;;;;;10.20;5.45;;;;;;;;;;5034457;28;20040;-25
2023/06/23 13:41:56;;;;;;;7.30;4.75;;;;;;;;;;5034326;28;20033;-25
2023/06/23 13:44:22;;;;;;;10.38;5.38;;;;;;;;;;5016903;28;20037;-25
2023/06/23 13:46:51;;;;;;;30.77;6.00;;;;;;;;;;5034350;28;20356;-25
2023/06/23 13:49:17;;;;;;;11.57;5.95;;;;;;;;;;5034411;28;20030;-25
2023/06/23 13:51:43;;;;;;;13.38;5.07;;;;;;;;;;5033963;28;20412;-25
2023/06/23 13:54:09;;;;;;;16.73;5.05;;;;;;;;;;5034131;28;20030;-25
2023/06/23 13:56:36;;;;;;;11.80;5.03;;;;;;;;;;5034166;28;20441;-25
2023/06/23 13:59:02;;;;;;;19.80;6.03;;;;;;;;;;5034091;28;20445;-24
2023/06/23 14:01:28;;;;;;;10.35;5.70;;;;;;;;;;5034407;28;20025;-24
2023/06/23 14:03:54;;;;;;;16.15;5.57;;;;;;;;;;5034097;28;20403;-24
2023/06/23 14:06:22;;;;;;;11.43;5.70;;;;;;;;;;5034120;28;20314;-24
2023/06/23 14:08:51;;;;;;;10.27;5.10;;;;;;;;;;5034117;28;20111;-25
2023/06/23 14:11:17;;;;;;;15.52;5.47;;;;;;;;;;5033932;28;20030;-25
2023/06/23 14:13:44;;;;;;;6.97;4.65;;;;;;;;;;5034061;28;20032;-24
2023/06/23 14:16:14;;;;;;;7.32;4.63;;;;;;;;;;5034323;28;20445;-25
2023/06/23 14:18:40;;;;;;;16.08;5.75;;;;;;;;;;5034651;28;20435;-25
2023/06/23 14:21:06;;;;;;;12.55;3.90;;;;;;;;;;5033917;28;20104;-25
2023/06/23 14:23:32;;;;;;;6.63;5.00;;;;;;;;;;5034215;28;20438;-25
2023/06/23 14:25:59;;;;;;;10.75;4.32;;;;;;;;;;5033969;28;20052;-26
2023/06/23 14:28:26;;;;;;;9.40;5.63;;;;;;;;;;5033869;28;20033;-26
2023/06/23 14:30:52;;;;;;;9.80;5.18;;;;;;;;;;5033779;28;20444;-26
2023/06/23 14:33:18;;;;;;;19.23;5.68;;;;;;;;;;5033886;28;20043;-26
2023/06/23 14:35:45;;;;;;;10.38;4.90;;;;;;;;;;5033884;28;20025;-26
2023/06/23 14:38:11;;;;;;;18.08;5.63;;;;;;;;;;5034114;28;20040;-26
2023/06/23 14:40:37;;;;;;;7.88;5.38;;;;;;;;;;5037216;28;20036;-26
2023/06/23 14:43:04;;;;;;;9.27;5.35;;;;;;;;;;5037315;28;20471;-26